createdAt,value
2023-06-07T00:02:29.518Z,98680.88
2023-06-07T00:07:40.072Z,98670.44
2023-06-07T00:12:44.836Z,98676.06
2023-06-07T00:17:48.875Z,98686.25
2023-06-07T00:22:56.435Z,98679.88
2023-06-07T00:28:00.828Z,98682.50
2023-06-07T00:33:04.038Z,98683.06
2023-06-07T00:38:07.522Z,98681.44
2023-06-07T00:43:11.614Z,98670.22
2023-06-07T00:48:15.516Z,98671.63
2023-06-07T00:53:18.998Z,98667.94
2023-06-07T00:58:24.603Z,98670.63
2023-06-07T01:03:27.673Z,98662.09
2023-06-07T01:08:33.080Z,98671.31
2023-06-07T01:13:37.633Z,98670.16
2023-06-07T01:18:43.667Z,98662.41
2023-06-07T01:23:48.733Z,98658.97
2023-06-07T01:28:51.709Z,98656.72
2023-06-07T01:33:55.385Z,98652.72
2023-06-07T01:39:01.820Z,98651.59
2023-06-07T01:44:04.940Z,98633.13
2023-06-07T01:49:08.271Z,98637.78
2023-06-07T01:54:13.173Z,98632.44
2023-06-07T01:59:24.334Z,98628.75
2023-06-07T02:04:33.019Z,98625.00
2023-06-07T02:09:41.261Z,98617.16
2023-06-07T02:14:44.688Z,98611.09
2023-06-07T02:19:48.560Z,98609.47
2023-06-07T02:24:53.031Z,98618.06
2023-06-07T02:29:55.832Z,98610.31
2023-06-07T02:35:01.006Z,98619.38
2023-06-07T02:40:07.255Z,98617.47
2023-06-07T02:45:12.704Z,98613.63
2023-06-07T02:50:15.766Z,98618.94
2023-06-07T02:55:20.978Z,98616.69
2023-06-07T03:00:25.000Z,98611.56
2023-06-07T03:05:34.749Z,98617.75
2023-06-07T03:10:44.911Z,98624.34
2023-06-07T03:15:52.732Z,98620.66
2023-06-07T03:20:55.778Z,98623.50
2023-06-07T03:26:01.021Z,98622.66
2023-06-07T03:31:07.978Z,98613.75
2023-06-07T03:36:27.139Z,98619.50
2023-06-07T03:41:32.237Z,98617.34
2023-06-07T03:46:38.816Z,98612.66
2023-06-07T03:51:44.175Z,98617.22
2023-06-07T03:56:49.374Z,98616.91
2023-06-07T04:01:52.413Z,98619.78
2023-06-07T04:06:56.039Z,98621.69
2023-06-07T04:12:02.814Z,98619.25
2023-06-07T04:17:06.865Z,98616.53
2023-06-07T04:22:11.035Z,98624.22
2023-06-07T04:27:19.408Z,98625.78
2023-06-07T04:32:23.148Z,98632.25
2023-06-07T04:37:32.269Z,98626.91
2023-06-07T04:42:38.636Z,98627.13
2023-06-07T04:47:46.893Z,98623.97
2023-06-07T04:53:01.963Z,98624.69
2023-06-07T04:58:07.188Z,98624.84
2023-06-07T05:03:22.854Z,98628.44
2023-06-07T05:08:28.683Z,98628.97
2023-06-07T05:13:33.799Z,98627.47
2023-06-07T05:18:40.698Z,98626.91
2023-06-07T05:23:44.278Z,98626.25
2023-06-07T05:28:48.854Z,98617.41
2023-06-07T05:33:51.896Z,98635.22
2023-06-07T05:38:57.195Z,98634.06
2023-06-07T05:44:02.088Z,98628.19
2023-06-07T05:49:05.998Z,98634.09
2023-06-07T05:54:09.590Z,98638.59
2023-06-07T05:59:13.875Z,98632.31
2023-06-07T06:04:17.527Z,98636.16
2023-06-07T06:09:20.979Z,98645.72
2023-06-07T06:14:26.326Z,98637.06
2023-06-07T06:19:29.253Z,98629.75
2023-06-07T06:24:32.048Z,98627.34
2023-06-07T06:29:36.230Z,98626.97
2023-06-07T06:34:39.010Z,98643.28
2023-06-07T06:39:42.085Z,98640.75
2023-06-07T06:44:46.394Z,98649.63
2023-06-07T06:49:51.204Z,98649.63
2023-06-07T06:54:54.106Z,98652.00
2023-06-07T06:59:58.356Z,98647.91
2023-06-07T07:05:01.327Z,98646.94
2023-06-07T07:10:05.545Z,98641.94
2023-06-07T07:15:10.614Z,98648.31
2023-06-07T07:20:16.730Z,98650.91
2023-06-07T07:25:19.579Z,98653.41
2023-06-07T07:30:24.181Z,98658.13
2023-06-07T07:35:27.044Z,98655.59
2023-06-07T07:40:30.255Z,98660.00
2023-06-07T07:45:34.458Z,98661.41
2023-06-07T07:50:39.302Z,98665.84
2023-06-07T07:55:42.386Z,98666.69
2023-06-07T08:00:47.023Z,98671.69
2023-06-07T08:05:49.916Z,98668.25
2023-06-07T08:10:53.398Z,98666.94
2023-06-07T08:15:57.845Z,98663.03
2023-06-07T08:21:01.007Z,98659.34
2023-06-07T08:26:04.286Z,98655.34
2023-06-07T08:31:08.581Z,98651.16
2023-06-07T08:36:11.732Z,98645.03
2023-06-07T08:41:14.718Z,98647.19
2023-06-07T08:46:19.861Z,98652.63
2023-06-07T08:51:24.580Z,98647.81
2023-06-07T08:56:30.258Z,98654.31
2023-06-07T09:01:36.833Z,98644.78
2023-06-07T09:06:41.718Z,98647.63
2023-06-07T09:11:44.720Z,98653.28
2023-06-07T09:16:56.403Z,98646.13
2023-06-07T09:21:59.479Z,98649.91
2023-06-07T09:27:04.361Z,98650.53
2023-06-07T09:32:20.323Z,98650.38
2023-06-07T09:37:23.227Z,98646.31
2023-06-07T09:42:26.492Z,98643.28
2023-06-07T09:47:31.482Z,98638.44
2023-06-07T09:52:34.694Z,98647.31
2023-06-07T09:57:39.785Z,98642.06
2023-06-07T10:02:45.033Z,98645.38
2023-06-07T10:07:49.957Z,98637.22
2023-06-07T10:12:53.543Z,98642.09
2023-06-07T10:18:02.499Z,98640.75
2023-06-07T10:23:07.872Z,98638.56
2023-06-07T10:28:16.577Z,98636.34
2023-06-07T10:33:21.694Z,98640.66
2023-06-07T10:38:25.517Z,98633.22
2023-06-07T10:43:30.507Z,98634.56
2023-06-07T10:48:36.893Z,98625.81
2023-06-07T10:53:57.743Z,98628.19
2023-06-07T10:59:22.621Z,98622.84
2023-06-07T11:04:59.658Z,98623.31
2023-06-07T11:10:34.647Z,98630.06
2023-06-07T11:15:38.549Z,98619.03
2023-06-07T11:20:53.478Z,98624.41
2023-06-07T11:26:00.583Z,98628.81
2023-06-07T11:31:08.007Z,98625.94
2023-06-07T11:36:14.186Z,98618.41
2023-06-07T11:41:17.318Z,98609.50
2023-06-07T11:46:21.246Z,98607.69
2023-06-07T11:51:26.277Z,98602.09
2023-06-07T11:56:31.641Z,98602.69
2023-06-07T12:01:34.892Z,98595.63
2023-06-07T12:06:39.345Z,98592.84
2023-06-07T12:11:42.222Z,98580.34
2023-06-07T12:16:45.272Z,98584.00
2023-06-07T12:21:49.887Z,98587.91
2023-06-07T12:26:57.759Z,98586.63
2023-06-07T12:32:02.543Z,98578.19
2023-06-07T12:37:08.373Z,98573.19
2023-06-07T12:42:11.313Z,98563.28
2023-06-07T12:47:14.182Z,98561.03
2023-06-07T12:52:18.516Z,98554.00
2023-06-07T12:57:21.350Z,98550.72
2023-06-07T13:02:24.345Z,98537.41
2023-06-07T13:07:28.524Z,98548.31
2023-06-07T13:12:32.035Z,98541.75
2023-06-07T13:17:35.814Z,98530.59
2023-06-07T13:22:40.216Z,98538.31
2023-06-07T13:27:43.723Z,98531.31
2023-06-07T13:32:47.768Z,98529.31
2023-06-07T13:37:52.166Z,98528.16
2023-06-07T13:42:55.062Z,98526.66
2023-06-07T13:47:58.090Z,98524.78
2023-06-07T13:53:02.724Z,98518.31
2023-06-07T13:58:05.716Z,98513.25
2023-06-07T14:03:08.858Z,98508.09
2023-06-07T14:08:13.378Z,98510.72
2023-06-07T14:13:16.549Z,98496.03
2023-06-07T14:18:19.430Z,98503.75
2023-06-07T14:23:23.572Z,98492.81
2023-06-07T14:28:26.844Z,98496.63
2023-06-07T14:33:30.048Z,98484.63
2023-06-07T14:38:34.392Z,98479.94
2023-06-07T14:43:37.186Z,98486.28
2023-06-07T14:48:40.567Z,98489.72
2023-06-07T14:53:44.930Z,98492.09
2023-06-07T14:58:48.884Z,98491.75
2023-06-07T15:03:51.733Z,98473.63
2023-06-07T15:08:56.310Z,98479.16
2023-06-07T15:13:59.236Z,98485.34
2023-06-07T15:19:02.116Z,98481.56
2023-06-07T15:24:07.127Z,98488.41
2023-06-07T15:29:10.174Z,98480.63
2023-06-07T15:34:13.116Z,98491.06
2023-06-07T15:39:17.300Z,98485.50
2023-06-07T15:44:20.755Z,98496.22
2023-06-07T15:49:24.087Z,98485.69
2023-06-07T15:54:28.602Z,98480.44
2023-06-07T15:59:32.091Z,98477.63
2023-06-07T16:04:34.999Z,98465.25
2023-06-07T16:09:39.104Z,98463.75
2023-06-07T16:14:42.577Z,98471.41
2023-06-07T16:19:45.849Z,98479.38
2023-06-07T16:24:50.075Z,98477.66
2023-06-07T16:29:53.023Z,98474.81
2023-06-07T16:34:55.841Z,98474.81
2023-06-07T16:40:00.265Z,98469.66
2023-06-07T16:45:03.212Z,98466.31
2023-06-07T16:50:07.595Z,98477.44
2023-06-07T16:55:13.423Z,98469.16
2023-06-07T17:00:18.263Z,98476.81
2023-06-07T17:05:21.252Z,98471.38
2023-06-07T17:10:31.062Z,98477.00
2023-06-07T17:15:34.782Z,98479.75
2023-06-07T17:20:37.907Z,98474.75
2023-06-07T17:25:42.116Z,98462.13
2023-06-07T17:30:44.910Z,98480.97
2023-06-07T17:35:47.833Z,98476.63
2023-06-07T17:40:52.035Z,98488.28
2023-06-07T17:45:54.855Z,98470.78
2023-06-07T17:50:57.864Z,98460.69
2023-06-07T17:56:02.132Z,98466.72
2023-06-07T18:01:04.991Z,98461.03
2023-06-07T18:06:08.314Z,98470.91
2023-06-07T18:11:13.158Z,98453.81
2023-06-07T18:16:16.337Z,98454.63
2023-06-07T18:21:19.521Z,98465.50
2023-06-07T18:26:23.881Z,98465.50
2023-06-07T18:31:26.733Z,98463.44
2023-06-07T18:36:29.638Z,98462.91
2023-06-07T18:41:35.209Z,98466.66
2023-06-07T18:46:38.920Z,98470.00
2023-06-07T18:51:41.753Z,98468.44
2023-06-07T18:56:46.016Z,98467.88
2023-06-07T19:01:52.679Z,98483.53
2023-06-07T19:06:55.644Z,98483.19
2023-06-07T19:12:00.503Z,98482.34
2023-06-07T19:17:04.304Z,98479.00
2023-06-07T19:22:08.384Z,98480.63
2023-06-07T19:27:13.591Z,98480.28
2023-06-07T19:32:16.727Z,98473.72
2023-06-07T19:37:20.661Z,98464.97
2023-06-07T19:42:26.133Z,98468.31
2023-06-07T19:47:29.502Z,98478.03
2023-06-07T19:52:32.534Z,98479.66
2023-06-07T19:57:36.898Z,98478.63
2023-06-07T20:02:39.878Z,98484.13
2023-06-07T20:07:42.824Z,98483.03
2023-06-07T20:12:47.151Z,98495.22
2023-06-07T20:17:49.999Z,98494.56
2023-06-07T20:22:52.941Z,98493.91
2023-06-07T20:27:57.309Z,98490.06
2023-06-07T20:33:00.336Z,98486.38
2023-06-07T20:38:03.227Z,98487.94
2023-06-07T20:43:07.475Z,98495.56
2023-06-07T20:48:10.907Z,98495.56
2023-06-07T20:53:13.961Z,98495.63
2023-06-07T20:58:19.843Z,98494.38
2023-06-07T21:03:24.788Z,98501.84
2023-06-07T21:08:27.658Z,98502.09
2023-06-07T21:13:32.473Z,98505.38
2023-06-07T21:18:36.019Z,98506.97
2023-06-07T21:23:38.881Z,98507.41
2023-06-07T21:28:43.107Z,98505.63
2023-06-07T21:33:58.856Z,98505.47
2023-06-07T21:39:01.815Z,98505.19
2023-06-07T21:44:06.248Z,98502.50
2023-06-07T21:49:09.137Z,98501.84
2023-06-07T21:54:12.174Z,98508.94
2023-06-07T21:59:16.445Z,98505.28
2023-06-07T22:04:19.458Z,98514.72
2023-06-07T22:09:23.291Z,98508.47
2023-06-07T22:14:29.178Z,98503.94
2023-06-07T22:19:33.045Z,98500.75
2023-06-07T22:24:35.848Z,98507.63
2023-06-07T22:29:41.108Z,98503.59
2023-06-07T22:34:45.792Z,98501.19
2023-06-07T22:39:48.966Z,98504.88
2023-06-07T22:44:53.490Z,98502.03
2023-06-07T22:49:57.807Z,98503.88
2023-06-07T22:55:01.046Z,98503.34
2023-06-07T23:00:10.613Z,98499.50
2023-06-07T23:05:14.620Z,98503.34
2023-06-07T23:10:18.978Z,98509.56
2023-06-07T23:15:24.680Z,98499.97
2023-06-07T23:20:32.761Z,98502.19
2023-06-07T23:25:35.756Z,98493.25
2023-06-07T23:30:40.845Z,98499.97
2023-06-07T23:35:43.795Z,98499.50
2023-06-07T23:40:46.567Z,98501.19
2023-06-07T23:45:51.113Z,98497.28
2023-06-07T23:50:54.252Z,98501.03
2023-06-07T23:55:57.159Z,98484.53
